Time;durP1;ratioP1;P1;durP2;ratioP2;P2;SDS_P1;SDS_P2;PMS_P1;PMS_P2;Temp;Humidity;BMP_temperature;BMP_pressure;BME280_temperature;BME280_humidity;BME280_pressure;Samples;Min_cycle;Max_cycle;Signal;HPM_P1;HPM_P2
2021/01/22 02:53:45;;;;;;;0.50;0.40;;;4.40;93.50;;;;;;5025093;28;20193;-64
2021/01/22 02:56:21;;;;;;;1.58;0.40;;;4.40;93.50;;;;;;5025029;28;20095;-64
2021/01/22 02:58:56;;;;;;;3.45;0.50;;;4.40;93.40;;;;;;5022555;28;20128;-64
2021/01/22 03:01:24;;;;;;;2.65;0.50;;;4.40;93.30;;;;;;5030722;28;20580;-64
2021/01/22 03:04:02;;;;;;;2.40;0.98;;;4.40;93.40;;;;;;5024368;28;20451;-64
2021/01/22 03:06:32;;;;;;;2.90;0.52;;;4.40;93.40;;;;;;5020674;28;20064;-64
2021/01/22 03:09:01;;;;;;;2.10;0.50;;;4.40;93.40;;;;;;5022893;28;20033;-64
2021/01/22 03:11:29;;;;;;;2.63;0.60;;;4.40;93.50;;;;;;5025373;28;20045;-63
2021/01/22 03:13:57;;;;;;;2.50;0.57;;;4.40;93.40;;;;;;5021727;28;20045;-64
2021/01/22 03:16:25;;;;;;;3.45;0.60;;;4.50;93.40;;;;;;5022179;28;20036;-63
2021/01/22 03:18:58;;;;;;;2.83;0.60;;;4.40;93.30;;;;;;5023040;28;20133;-64
2021/01/22 03:21:24;;;;;;;3.05;0.60;;;4.40;93.30;;;;;;5028780;28;20045;-64
2021/01/22 03:23:49;;;;;;;3.85;0.70;;;4.50;93.30;;;;;;5026596;28;20057;-64
2021/01/22 03:26:15;;;;;;;7.60;0.70;;;4.50;93.40;;;;;;5018904;28;20503;-64
2021/01/22 03:28:41;;;;;;;2.92;0.70;;;4.40;93.20;;;;;;5025401;28;20127;-64
2021/01/22 03:31:06;;;;;;;2.72;0.50;;;4.40;93.20;;;;;;5026502;28;20056;-64
2021/01/22 03:33:32;;;;;;;2.65;0.47;;;4.40;93.00;;;;;;5024274;28;20039;-64
2021/01/22 03:35:58;;;;;;;3.63;0.63;;;4.40;93.00;;;;;;5020488;28;20083;-63
2021/01/22 03:38:23;;;;;;;2.05;0.40;;;4.40;93.00;;;;;;5021664;28;20045;-63
2021/01/22 03:40:49;;;;;;;3.05;0.50;;;4.40;93.10;;;;;;5022030;28;20073;-64
2021/01/22 03:43:15;;;;;;;5.88;1.10;;;4.40;93.00;;;;;;5019385;28;20131;-64
2021/01/22 03:45:41;;;;;;;2.65;0.50;;;4.40;93.00;;;;;;5017387;28;20056;-64
2021/01/22 03:48:06;;;;;;;3.03;0.50;;;4.40;93.00;;;;;;5018511;28;20488;-64
2021/01/22 03:50:32;;;;;;;3.80;0.65;;;4.30;93.00;;;;;;5019291;28;20050;-64
2021/01/22 03:52:58;;;;;;;2.22;0.68;;;4.30;93.00;;;;;;5023640;28;20448;-64
2021/01/22 03:55:23;;;;;;;3.42;0.80;;;4.40;93.00;;;;;;5019002;28;20033;-64
2021/01/22 03:57:50;;;;;;;6.15;0.90;;;4.40;93.10;;;;;;5021468;28;20046;-63
2021/01/22 04:00:16;;;;;;;1.63;0.70;;;4.40;93.10;;;;;;5024077;28;20450;-64
2021/01/22 04:02:41;;;;;;;4.20;0.90;;;4.30;93.10;;;;;;5021136;28;20033;-64
2021/01/22 04:05:07;;;;;;;4.65;1.48;;;4.30;93.20;;;;;;5017372;28;20044;-64
2021/01/22 04:07:33;;;;;;;3.97;0.80;;;4.30;93.10;;;;;;5019983;28;20486;-63
2021/01/22 04:09:59;;;;;;;4.72;0.75;;;4.30;93.10;;;;;;5026850;28;20042;-63
2021/01/22 04:12:24;;;;;;;3.28;0.70;;;4.30;93.00;;;;;;5021191;28;20044;-63
2021/01/22 04:14:50;;;;;;;3.60;0.80;;;4.30;93.10;;;;;;5020017;28;20108;-64
2021/01/22 04:17:16;;;;;;;3.33;0.85;;;4.30;93.10;;;;;;5019844;28;20121;-64
2021/01/22 04:19:43;;;;;;;3.47;1.10;;;4.30;93.20;;;;;;5019835;28;20038;-64
2021/01/22 04:22:09;;;;;;;3.95;0.98;;;4.30;93.20;;;;;;5018036;28;20108;-64
2021/01/22 04:24:35;;;;;;;9.35;1.48;;;4.30;93.30;;;;;;5018825;28;20122;-64
2021/01/22 04:27:01;;;;;;;2.13;1.40;;;4.30;93.30;;;;;;5019484;28;20083;-64
2021/01/22 04:29:26;;;;;;;5.13;1.25;;;4.30;93.30;;;;;;5022352;28;20041;-63
2021/01/22 04:31:52;;;;;;;3.45;1.92;;;4.20;93.30;;;;;;5020151;28;20104;-63
2021/01/22 04:34:18;;;;;;;3.95;1.55;;;4.20;93.30;;;;;;5020630;28;20125;-63
2021/01/22 04:36:44;;;;;;;4.55;1.60;;;4.20;93.40;;;;;;5017608;28;20485;-64
2021/01/22 04:39:09;;;;;;;3.00;1.65;;;4.20;93.50;;;;;;5022370;28;20499;-63
2021/01/22 04:41:35;;;;;;;6.18;1.90;;;4.20;93.50;;;;;;5022208;28;20038;-63
2021/01/22 04:44:02;;;;;;;5.15;2.28;;;4.30;93.80;;;;;;5022033;28;20049;-64
2021/01/22 04:46:34;;;;;;;6.32;2.10;;;4.30;93.50;;;;;;5020127;28;20041;-63
2021/01/22 04:49:01;;;;;;;4.05;2.38;;;4.20;93.50;;;;;;5023281;28;20033;-64
2021/01/22 04:51:29;;;;;;;5.47;2.70;;;4.20;93.50;;;;;;5022611;28;20038;-63
2021/01/22 04:53:57;;;;;;;8.13;3.00;;;4.20;93.50;;;;;;5020375;28;20041;-63
2021/01/22 04:56:25;;;;;;;6.63;2.85;;;4.20;93.50;;;;;;5020463;28;20033;-63
2021/01/22 04:58:55;;;;;;;5.20;2.78;;;4.10;93.50;;;;;;5023598;28;20054;-64
2021/01/22 05:01:22;;;;;;;9.07;3.30;;;4.10;93.50;;;;;;5030485;28;20046;-63
2021/01/22 05:03:47;;;;;;;7.60;3.58;;;4.10;93.50;;;;;;5022315;28;20056;-64
2021/01/22 05:06:14;;;;;;;7.20;3.88;;;4.10;93.50;;;;;;5022453;28;20034;-64
2021/01/22 05:08:40;;;;;;;7.40;3.63;;;4.00;93.50;;;;;;5025141;28;20048;-63
2021/01/22 05:11:06;;;;;;;8.40;4.43;;;4.00;93.50;;;;;;5026439;28;20042;-64
2021/01/22 05:13:32;;;;;;;8.63;4.80;;;4.00;93.60;;;;;;5023524;28;20037;-63
2021/01/22 05:16:12;;;;;;;10.25;5.05;;;4.00;93.70;;;;;;5022604;28;20041;-63
2021/01/22 05:18:37;;;;;;;10.93;5.30;;;4.00;93.80;;;;;;5026197;28;20037;-63
2021/01/22 05:21:13;;;;;;;8.05;5.38;;;4.00;93.80;;;;;;5026141;28;20111;-63
2021/01/22 05:23:39;;;;;;;11.00;6.28;;;3.90;93.80;;;;;;5023793;28;20042;-63
2021/01/22 05:26:07;;;;;;;12.45;6.65;;;3.90;93.80;;;;;;5022259;28;20400;-63
2021/01/22 05:28:39;;;;;;;10.48;7.32;;;3.90;93.80;;;;;;5022695;28;20500;-63
2021/01/22 05:31:10;;;;;;;12.15;7.25;;;3.90;93.90;;;;;;5023854;28;20052;-63
2021/01/22 05:33:41;;;;;;;12.55;7.75;;;3.90;93.90;;;;;;5026431;28;20038;-64
2021/01/22 05:36:24;;;;;;;14.07;7.78;;;3.80;93.80;;;;;;5020682;28;20045;-63
2021/01/22 05:38:51;;;;;;;14.60;7.72;;;3.80;93.80;;;;;;5022587;28;21040;-63
2021/01/22 05:41:17;;;;;;;13.32;8.15;;;3.80;93.90;;;;;;5025133;28;20042;-63
2021/01/22 05:43:43;;;;;;;18.13;9.10;;;3.80;93.80;;;;;;5027801;28;20030;-63
2021/01/22 05:46:14;;;;;;;17.27;9.25;;;3.80;93.90;;;;;;5024005;28;20075;-63
2021/01/22 05:48:40;;;;;;;12.57;9.23;;;3.70;93.90;;;;;;5027905;28;20480;-63
2021/01/22 05:51:07;;;;;;;13.98;9.27;;;3.80;94.00;;;;;;5026021;28;20044;-63
2021/01/22 05:53:33;;;;;;;16.23;9.73;;;3.70;93.90;;;;;;5023885;28;20100;-63
2021/01/22 05:56:05;;;;;;;17.08;9.30;;;3.70;94.00;;;;;;5025226;28;20111;-63
2021/01/22 05:58:31;;;;;;;19.83;10.00;;;3.70;94.00;;;;;;5026468;28;20569;-63
2021/01/22 06:01:17;;;;;;;17.67;9.70;;;3.70;94.10;;;;;;5025348;28;20115;-63
2021/01/22 06:04:05;;;;;;;15.80;10.00;;;3.70;94.00;;;;;;5028390;28;20484;-63
2021/01/22 06:06:32;;;;;;;16.83;9.30;;;3.70;94.10;;;;;;5026361;28;20128;-64
2021/01/22 06:08:58;;;;;;;21.65;10.18;;;3.70;94.30;;;;;;5023475;28;20048;-63
2021/01/22 06:11:29;;;;;;;18.10;9.57;;;3.70;94.20;;;;;;5027608;28;20045;-63
2021/01/22 06:14:05;;;;;;;16.65;9.73;;;3.70;94.20;;;;;;5028406;28;20033;-64
2021/01/22 06:16:32;;;;;;;14.98;9.63;;;3.70;94.20;;;;;;5024001;28;20048;-63
2021/01/22 06:19:00;;;;;;;15.75;10.18;;;3.70;94.40;;;;;;5026297;28;20479;-64
2021/01/22 06:21:47;;;;;;;15.57;9.55;;;3.70;94.40;;;;;;5029245;28;20072;-63
2021/01/22 06:24:14;;;;;;;19.00;10.15;;;3.80;94.40;;;;;;5024880;28;20057;-63
2021/01/22 06:26:40;;;;;;;15.82;9.52;;;3.70;94.40;;;;;;5024103;28;20487;-63
2021/01/22 06:29:07;;;;;;;15.82;9.30;;;3.80;94.30;;;;;;5022896;28;20030;-63
2021/01/22 06:31:33;;;;;;;17.55;9.23;;;3.70;94.30;;;;;;5020672;28;20049;-63
2021/01/22 06:34:00;;;;;;;15.10;8.27;;;3.70;94.30;;;;;;5025828;28;20119;-64
2021/01/22 06:36:27;;;;;;;14.90;8.43;;;3.70;94.30;;;;;;5024897;28;20069;-63
2021/01/22 06:38:54;;;;;;;13.38;7.95;;;3.70;94.30;;;;;;5026626;28;20107;-63
2021/01/22 06:41:27;;;;;;;21.17;8.93;;;3.70;94.20;;;;;;5026504;28;20038;-63
2021/01/22 06:43:56;;;;;;;16.95;7.85;;;3.70;94.30;;;;;;5024885;28;20092;-63
2021/01/22 06:46:27;;;;;;;8.70;6.45;;;3.70;94.20;;;;;;5024697;28;20117;-63
2021/01/22 06:48:59;;;;;;;13.25;6.13;;;3.70;94.30;;;;;;5025315;28;20140;-63
2021/01/22 06:51:33;;;;;;;12.30;5.57;;;3.70;94.30;;;;;;5025890;28;20472;-63
2021/01/22 06:54:03;;;;;;;12.63;5.43;;;3.70;94.20;;;;;;5027105;28;20038;-63
2021/01/22 06:56:29;;;;;;;10.48;5.38;;;3.70;94.50;;;;;;5028411;28;20041;-63
2021/01/22 06:58:55;;;;;;;10.30;4.80;;;3.70;94.30;;;;;;5022652;28;20108;-63
2021/01/22 07:01:32;;;;;;;7.45;5.22;;;3.60;94.20;;;;;;5023871;28;20053;-63
2021/01/22 07:03:58;;;;;;;11.25;4.93;;;3.70;94.30;;;;;;5022696;28;20479;-63
2021/01/22 07:06:35;;;;;;;8.80;4.25;;;3.60;94.20;;;;;;5025210;28;20042;-63
2021/01/22 07:09:01;;;;;;;9.98;4.80;;;3.60;94.30;;;;;;5024381;28;20040;-63
2021/01/22 07:11:51;;;;;;;9.57;4.35;;;3.60;94.30;;;;;;5023800;28;20056;-63
2021/01/22 07:14:41;;;;;;;9.80;4.25;;;3.60;94.20;;;;;;5018255;28;20061;-64
2021/01/22 07:17:29;;;;;;;9.40;4.47;;;3.60;94.30;;;;;;5024774;28;20103;-63
2021/01/22 07:20:07;;;;;;;12.00;4.47;;;3.60;94.20;;;;;;5027360;28;20040;-63
2021/01/22 07:22:34;;;;;;;9.70;4.30;;;3.50;94.20;;;;;;5025928;28;20030;-63
2021/01/22 07:25:02;;;;;;;13.05;4.65;;;3.50;94.20;;;;;;5025363;28;20044;-63
2021/01/22 07:27:44;;;;;;;12.00;4.63;;;3.50;94.30;;;;;;5024178;28;20052;-63
2021/01/22 07:30:14;;;;;;;7.97;5.10;;;3.50;94.20;;;;;;5027704;28;20040;-63
2021/01/22 07:32:41;;;;;;;10.05;4.25;;;3.50;94.30;;;;;;5025715;28;20091;-63
2021/01/22 07:35:25;;;;;;;11.38;4.65;;;3.50;94.40;;;;;;5025917;28;20675;-63
2021/01/22 07:37:52;;;;;;;9.90;4.35;;;3.50;94.40;;;;;;5024900;28;20034;-64
2021/01/22 07:40:19;;;;;;;17.85;5.30;;;3.50;94.40;;;;;;5024616;28;20053;-63
2021/01/22 07:42:45;;;;;;;10.57;4.13;;;3.50;94.40;;;;;;5022035;28;20057;-64
2021/01/22 07:45:18;;;;;;;13.20;3.95;;;3.50;94.40;;;;;;5024316;28;20219;-64
2021/01/22 07:47:48;;;;;;;9.93;4.03;;;3.50;94.30;;;;;;5025925;28;20033;-64
2021/01/22 07:50:15;;;;;;;12.93;5.10;;;3.50;94.30;;;;;;5024894;28;20041;-63
2021/01/22 07:52:46;;;;;;;12.25;4.88;;;3.50;94.40;;;;;;5022073;28;20038;-63
2021/01/22 07:55:22;;;;;;;10.75;4.85;;;3.50;94.30;;;;;;5024132;28;20037;-63
2021/01/22 07:58:08;;;;;;;11.10;5.05;;;3.50;94.30;;;;;;5022219;28;20050;-64
2021/01/22 08:00:38;;;;;;;9.93;4.63;;;3.50;94.20;;;;;;5025009;28;20111;-63
2021/01/22 08:03:04;;;;;;;10.88;5.25;;;3.50;94.30;;;;;;5023661;28;20112;-64
2021/01/22 08:05:35;;;;;;;7.82;4.65;;;3.50;94.20;;;;;;5020807;28;20041;-63
2021/01/22 08:08:14;;;;;;;14.07;5.05;;;3.50;94.30;;;;;;5021533;28;20431;-64
2021/01/22 08:10:40;;;;;;;19.33;6.78;;;3.50;94.30;;;;;;5023416;28;20040;-63
2021/01/22 08:13:06;;;;;;;10.38;5.82;;;3.50;94.40;;;;;;5027392;28;20449;-64
2021/01/22 08:15:31;;;;;;;12.70;5.57;;;3.50;94.40;;;;;;5027669;28;20042;-63
2021/01/22 08:17:57;;;;;;;14.75;5.53;;;3.60;94.40;;;;;;5019401;28;20038;-63
2021/01/22 08:20:23;;;;;;;13.82;5.15;;;3.60;94.40;;;;;;5023737;28;20161;-63
2021/01/22 08:22:57;;;;;;;22.20;6.82;;;3.60;94.40;;;;;;5022440;28;20033;-63
2021/01/22 08:25:38;;;;;;;17.45;6.55;;;3.60;94.40;;;;;;5025027;28;20053;-64
2021/01/22 08:28:09;;;;;;;15.02;6.68;;;3.60;94.40;;;;;;5018162;28;20042;-63
2021/01/22 08:30:36;;;;;;;14.15;6.80;;;3.70;94.30;;;;;;5022500;28;20045;-63
2021/01/22 08:33:03;;;;;;;15.38;6.40;;;3.60;94.30;;;;;;5021018;28;20041;-63
2021/01/22 08:35:31;;;;;;;19.17;6.68;;;3.60;94.20;;;;;;5022127;28;20049;-63
2021/01/22 08:37:58;;;;;;;14.73;7.03;;;3.70;94.20;;;;;;5022500;28;20137;-64
2021/01/22 08:40:37;;;;;;;14.57;7.30;;;3.70;94.20;;;;;;5020924;28;20037;-63
2021/01/22 08:43:06;;;;;;;18.08;8.07;;;3.70;94.20;;;;;;5022155;28;20036;-64
2021/01/22 08:45:33;;;;;;;15.38;7.13;;;3.60;94.20;;;;;;5025455;28;20080;-64
2021/01/22 08:47:59;;;;;;;16.52;7.28;;;3.60;94.10;;;;;;5021048;28;20091;-64
2021/01/22 08:50:25;;;;;;;15.00;6.80;;;3.60;94.10;;;;;;5024545;28;20044;-64
2021/01/22 08:53:12;;;;;;;11.63;6.07;;;3.60;94.10;;;;;;5026046;28;20877;-63
2021/01/22 08:55:39;;;;;;;13.70;6.65;;;3.60;94.10;;;;;;5027269;28;20076;-63
2021/01/22 08:58:09;;;;;;;14.38;6.90;;;3.60;94.10;;;;;;5026107;28;20029;-63
2021/01/22 09:00:35;;;;;;;13.40;7.60;;;3.70;94.10;;;;;;5018521;28;20554;-63
2021/01/22 09:03:01;;;;;;;19.48;6.57;;;3.70;94.20;;;;;;5025833;28;20044;-63
2021/01/22 09:05:28;;;;;;;15.07;6.38;;;3.70;94.10;;;;;;5023361;28;20041;-63
2021/01/22 09:08:11;;;;;;;14.98;6.55;;;3.70;94.10;;;;;;5015875;28;20042;-63
2021/01/22 09:10:46;;;;;;;11.77;6.65;;;3.70;94.10;;;;;;5022824;28;20515;-63
2021/01/22 09:13:13;;;;;;;13.80;7.03;;;3.80;94.20;;;;;;5017398;28;20056;-63
2021/01/22 09:15:40;;;;;;;15.23;7.20;;;3.70;94.10;;;;;;5019260;28;20044;-63
2021/01/22 09:18:15;;;;;;;16.20;6.85;;;3.70;94.00;;;;;;5022342;28;20034;-63
2021/01/22 09:20:44;;;;;;;15.77;6.97;;;3.70;94.00;;;;;;5023024;28;21578;-64
2021/01/22 09:23:11;;;;;;;20.27;7.90;;;3.70;94.00;;;;;;5021152;28;20195;-63
2021/01/22 09:25:37;;;;;;;19.17;8.27;;;3.70;94.00;;;;;;5023074;28;20682;-63
2021/01/22 09:28:03;;;;;;;12.48;7.93;;;3.70;94.10;;;;;;5016834;28;20038;-63
2021/01/22 09:30:29;;;;;;;14.73;8.50;;;3.70;94.10;;;;;;5021354;28;20143;-63
2021/01/22 09:32:58;;;;;;;19.95;9.13;;;3.80;94.30;;;;;;5019119;28;20491;-63
2021/01/22 09:35:26;;;;;;;18.27;9.52;;;3.80;94.30;;;;;;5021000;28;20080;-63
2021/01/22 09:37:52;;;;;;;17.92;10.85;;;3.80;94.30;;;;;;5019990;28;20048;-63
2021/01/22 09:40:20;;;;;;;21.83;9.68;;;3.80;94.30;;;;;;5018471;28;20041;-63
2021/01/22 09:42:46;;;;;;;19.08;8.68;;;3.80;94.40;;;;;;5021081;28;20048;-63
2021/01/22 09:45:14;;;;;;;17.42;9.15;;;3.90;94.40;;;;;;5023865;28;20041;-63
2021/01/22 09:47:39;;;;;;;20.73;11.25;;;3.90;94.40;;;;;;5023726;28;20076;-63
2021/01/22 09:50:08;;;;;;;19.42;9.90;;;4.10;94.40;;;;;;5025819;28;20084;-63
2021/01/22 09:52:36;;;;;;;20.17;9.30;;;4.00;94.50;;;;;;5022582;28;20041;-63
2021/01/22 09:55:03;;;;;;;15.82;10.07;;;4.00;94.50;;;;;;5025506;28;20045;-63
2021/01/22 09:57:29;;;;;;;24.65;10.13;;;4.10;94.40;;;;;;5020813;28;21727;-64
2021/01/22 09:59:55;;;;;;;16.60;9.70;;;4.20;94.70;;;;;;5019213;28;20086;-64
2021/01/22 10:02:21;;;;;;;18.20;9.65;;;4.30;94.70;;;;;;5025549;28;20506;-63
2021/01/22 10:04:47;;;;;;;20.05;8.90;;;4.40;94.70;;;;;;5024689;28;20124;-64
2021/01/22 10:07:13;;;;;;;21.38;9.32;;;4.40;94.50;;;;;;5020332;28;20056;-64
2021/01/22 10:09:39;;;;;;;19.77;8.60;;;4.50;94.20;;;;;;5025155;28;20033;-64
2021/01/22 10:12:07;;;;;;;17.00;8.05;;;4.60;94.30;;;;;;5021750;28;20109;-64
2021/01/22 10:14:33;;;;;;;22.50;9.65;;;4.60;94.00;;;;;;5023312;28;20372;-64
2021/01/22 10:16:58;;;;;;;18.15;7.80;;;4.70;94.10;;;;;;5026325;28;20044;-64
2021/01/22 10:19:24;;;;;;;15.77;7.18;;;4.70;94.40;;;;;;5021764;28;20415;-64
2021/01/22 10:21:50;;;;;;;17.80;7.63;;;4.80;94.00;;;;;;5023391;28;20040;-64
2021/01/22 10:24:16;;;;;;;17.23;6.65;;;4.80;93.90;;;;;;5024458;28;20495;-64
2021/01/22 10:26:45;;;;;;;17.95;7.15;;;4.90;93.80;;;;;;5023308;28;20422;-64
2021/01/22 10:29:12;;;;;;;20.27;7.18;;;5.00;93.90;;;;;;5019260;28;20041;-64
2021/01/22 10:31:37;;;;;;;18.30;7.72;;;5.10;93.60;;;;;;5021164;28;20056;-64
2021/01/22 10:34:03;;;;;;;18.58;7.13;;;5.10;93.40;;;;;;5024682;28;20530;-64
2021/01/22 10:36:29;;;;;;;16.42;5.65;;;5.10;93.40;;;;;;5026545;28;20033;-64
2021/01/22 10:38:55;;;;;;;16.98;5.45;;;5.10;93.20;;;;;;5020394;28;20042;-64
2021/01/22 10:41:21;;;;;;;14.88;5.20;;;5.20;93.30;;;;;;5024760;28;21393;-64
2021/01/22 10:43:47;;;;;;;21.23;5.45;;;5.20;93.10;;;;;;5019116;28;20052;-64
2021/01/22 10:46:12;;;;;;;26.98;6.32;;;5.30;92.90;;;;;;5021228;28;20033;-64
2021/01/22 10:48:38;;;;;;;16.00;5.05;;;5.40;93.00;;;;;;5021391;28;20044;-64
2021/01/22 10:51:05;;;;;;;25.90;6.15;;;5.40;92.80;;;;;;5024037;28;20550;-64
2021/01/22 10:53:33;;;;;;;24.90;5.50;;;5.50;92.90;;;;;;5023078;28;20125;-64
2021/01/22 10:55:59;;;;;;;15.63;4.03;;;5.50;92.40;;;;;;5025018;28;20145;-64
2021/01/22 10:58:25;;;;;;;18.23;4.70;;;5.60;92.50;;;;;;5021945;28;20455;-64
2021/01/22 11:00:55;;;;;;;15.90;4.22;;;5.60;92.40;;;;;;5025874;28;20069;-64
2021/01/22 11:03:21;;;;;;;12.05;3.60;;;5.70;92.40;;;;;;5021084;28;20038;-64
2021/01/22 11:05:47;;;;;;;15.00;3.78;;;5.80;92.20;;;;;;5024308;28;20055;-64
2021/01/22 11:08:13;;;;;;;14.80;3.40;;;5.90;92.20;;;;;;5023229;28;20046;-64
2021/01/22 11:10:39;;;;;;;13.02;3.63;;;5.90;91.80;;;;;;5022487;28;20034;-64
2021/01/22 11:13:05;;;;;;;13.60;3.55;;;6.00;91.80;;;;;;5024056;28;20041;-64
2021/01/22 11:15:34;;;;;;;17.85;3.80;;;6.10;91.80;;;;;;5028601;28;20034;-64
2021/01/22 11:18:02;;;;;;;13.15;3.00;;;6.20;91.50;;;;;;5016108;28;20484;-64
2021/01/22 11:20:27;;;;;;;14.80;4.45;;;6.20;91.10;;;;;;5018040;28;20052;-64
2021/01/22 11:22:53;;;;;;;15.30;3.67;;;6.20;91.20;;;;;;5020044;28;20460;-64
2021/01/22 11:25:21;;;;;;;13.13;3.75;;;6.20;91.10;;;;;;5029554;28;20042;-64
2021/01/22 11:27:49;;;;;;;16.83;3.50;;;6.20;91.10;;;;;;5021014;28;20053;-64
2021/01/22 11:30:16;;;;;;;11.68;3.83;;;6.20;90.90;;;;;;5024470;28;20092;-64
2021/01/22 11:32:42;;;;;;;16.83;4.25;;;6.20;91.00;;;;;;5021348;28;20045;-64
2021/01/22 11:35:09;;;;;;;16.95;3.20;;;6.20;91.10;;;;;;5025571;28;20047;-64
2021/01/22 11:37:40;;;;;;;14.38;2.90;;;6.20;91.10;;;;;;5021181;28;20099;-64
2021/01/22 11:40:08;;;;;;;15.38;3.50;;;6.20;90.70;;;;;;5026805;28;20558;-64
2021/01/22 11:42:34;;;;;;;14.85;3.50;;;6.20;90.80;;;;;;5025414;28;20041;-64
2021/01/22 11:45:00;;;;;;;10.27;2.78;;;6.20;90.70;;;;;;5024560;28;20041;-64
2021/01/22 11:47:26;;;;;;;17.15;3.55;;;6.20;90.70;;;;;;5023430;28;20042;-64
2021/01/22 11:49:52;;;;;;;20.48;3.90;;;6.20;90.90;;;;;;5021869;28;20936;-64
2021/01/22 11:52:18;;;;;;;13.20;2.00;;;6.20;90.80;;;;;;5026175;28;20076;-64
2021/01/22 11:54:44;;;;;;;13.13;2.38;;;6.20;90.70;;;;;;5027626;28;20083;-64
2021/01/22 11:57:10;;;;;;;14.32;2.30;;;6.20;90.80;;;;;;5024462;28;20038;-64
2021/01/22 11:59:36;;;;;;;15.43;2.30;;;6.20;90.70;;;;;;5022678;28;20128;-64
2021/01/22 12:02:02;;;;;;;10.82;2.85;;;6.20;90.60;;;;;;5025929;28;20045;-64
2021/01/22 12:04:27;;;;;;;17.05;2.60;;;6.30;90.80;;;;;;5020795;28;20471;-64
2021/01/22 12:06:53;;;;;;;14.07;3.00;;;6.30;90.60;;;;;;5022834;28;20471;-64
2021/01/22 12:09:20;;;;;;;17.60;3.17;;;6.30;90.40;;;;;;5021429;28;20038;-64
2021/01/22 12:11:46;;;;;;;13.57;3.17;;;6.40;90.40;;;;;;5025205;28;20037;-64
2021/01/22 12:14:12;;;;;;;18.75;2.55;;;6.40;90.10;;;;;;5026543;28;20545;-64
2021/01/22 12:16:38;;;;;;;11.15;2.20;;;6.50;90.30;;;;;;5021704;28;20052;-64
2021/01/22 12:19:04;;;;;;;12.73;2.38;;;6.50;90.40;;;;;;5019743;28;20038;-64
2021/01/22 12:21:30;;;;;;;13.45;2.72;;;6.50;90.20;;;;;;5018839;28;20450;-64
2021/01/22 12:23:56;;;;;;;12.20;2.33;;;6.60;90.00;;;;;;5025592;28;20045;-64
2021/01/22 12:26:24;;;;;;;14.50;2.53;;;6.60;90.00;;;;;;5022011;28;20033;-64
2021/01/22 12:28:50;;;;;;;12.05;2.45;;;6.70;90.10;;;;;;5019594;28;20052;-64
2021/01/22 12:31:16;;;;;;;10.35;2.40;;;6.70;90.30;;;;;;5025157;28;20041;-64
2021/01/22 12:33:42;;;;;;;11.70;2.25;;;6.80;90.50;;;;;;5017575;28;20037;-64
2021/01/22 12:36:09;;;;;;;11.77;2.22;;;6.80;90.30;;;;;;5018531;28;20041;-64
2021/01/22 12:38:35;;;;;;;14.18;2.47;;;6.90;90.00;;;;;;5011795;28;20049;-64
2021/01/22 12:41:02;;;;;;;15.52;1.88;;;6.90;90.10;;;;;;5013430;28;20029;-64
2021/01/22 12:43:28;;;;;;;9.85;1.58;;;7.00;90.00;;;;;;5010934;28;20042;-64
2021/01/22 12:45:54;;;;;;;13.90;2.22;;;7.00;89.90;;;;;;5013292;28;20699;-64
2021/01/22 12:48:20;;;;;;;14.85;3.22;;;7.00;89.50;;;;;;5008977;28;20069;-64
2021/01/22 12:50:46;;;;;;;9.80;2.00;;;7.00;88.70;;;;;;5019290;28;20124;-64
2021/01/22 12:53:11;;;;;;;11.15;2.13;;;6.90;87.70;;;;;;5013966;28;20033;-64
2021/01/22 12:55:37;;;;;;;15.20;2.97;;;6.90;88.20;;;;;;5017542;28;20123;-64
2021/01/22 12:58:03;;;;;;;14.48;1.95;;;6.80;87.40;;;;;;5016687;28;20087;-64
2021/01/22 13:00:30;;;;;;;9.82;1.83;;;6.80;87.80;;;;;;5022477;28;20033;-64
2021/01/22 13:02:56;;;;;;;9.80;1.33;;;6.80;88.10;;;;;;5020413;28;20038;-64
2021/01/22 13:05:24;;;;;;;15.32;2.05;;;6.80;89.00;;;;;;5022123;28;20384;-64
2021/01/22 13:07:50;;;;;;;13.95;3.60;;;6.90;88.80;;;;;;5023267;28;20065;-64
2021/01/22 13:10:16;;;;;;;15.07;1.55;;;7.00;87.30;;;;;;5019349;28;20037;-64
2021/01/22 13:12:42;;;;;;;14.95;1.70;;;7.10;85.20;;;;;;5022774;28;20550;-64
2021/01/22 13:15:13;;;;;;;13.27;1.65;;;7.20;84.90;;;;;;5019178;28;20053;-64
2021/01/22 13:17:40;;;;;;;13.73;2.00;;;7.20;83.80;;;;;;5022267;28;20100;-64
2021/01/22 13:20:07;;;;;;;12.52;2.00;;;7.20;83.80;;;;;;5021045;28;20088;-64
2021/01/22 13:22:33;;;;;;;13.57;2.40;;;7.20;83.70;;;;;;5023491;28;20443;-64
2021/01/22 13:25:00;;;;;;;9.45;1.27;;;7.20;83.90;;;;;;5023899;28;20041;-64
2021/01/22 13:27:27;;;;;;;11.63;2.28;;;7.20;82.80;;;;;;5021009;28;20048;-64
2021/01/22 13:29:53;;;;;;;14.68;2.70;;;7.10;83.20;;;;;;5022833;28;20155;-64
2021/01/22 13:32:20;;;;;;;11.05;2.05;;;7.10;84.20;;;;;;5024527;28;20492;-64
2021/01/22 13:34:47;;;;;;;10.63;1.40;;;7.10;84.50;;;;;;5019734;28;20556;-64
2021/01/22 13:37:13;;;;;;;13.43;1.63;;;7.20;84.90;;;;;;5024619;28;20048;-64
2021/01/22 13:39:39;;;;;;;11.95;2.22;;;7.20;85.10;;;;;;5024915;28;20499;-64
2021/01/22 13:42:05;;;;;;;12.45;2.33;;;7.30;83.80;;;;;;5023411;28;20033;-64
2021/01/22 13:44:31;;;;;;;8.85;1.90;;;7.30;81.40;;;;;;5023365;28;20037;-64
2021/01/22 13:46:56;;;;;;;12.38;2.40;;;7.30;81.60;;;;;;5026610;28;20041;-64
2021/01/22 13:49:22;;;;;;;12.20;1.77;;;7.20;80.20;;;;;;5027214;28;20045;-64
2021/01/22 13:51:48;;;;;;;8.90;1.38;;;7.20;80.30;;;;;;5022913;28;20069;-64
2021/01/22 13:54:15;;;;;;;11.82;2.15;;;7.20;79.80;;;;;;5028451;28;20494;-64
2021/01/22 13:56:40;;;;;;;12.32;2.60;;;7.10;79.00;;;;;;5021207;28;20037;-64
2021/01/22 13:59:06;;;;;;;10.73;2.13;;;7.10;79.30;;;;;;5021549;28;20037;-64
2021/01/22 14:01:32;;;;;;;11.88;1.65;;;7.10;79.80;;;;;;5027048;28;20038;-64
2021/01/22 14:03:57;;;;;;;10.52;2.03;;;7.00;78.40;;;;;;5022818;28;20045;-64
2021/01/22 14:06:23;;;;;;;14.90;2.28;;;7.00;78.70;;;;;;5024288;28;20037;-64
2021/01/22 14:08:49;;;;;;;11.85;1.98;;;7.00;79.10;;;;;;5027345;28;20056;-64
2021/01/22 14:11:15;;;;;;;14.13;1.80;;;7.00;79.30;;;;;;5022769;28;20050;-64
2021/01/22 14:13:41;;;;;;;6.50;1.35;;;7.00;79.60;;;;;;5020359;28;20038;-64
2021/01/22 14:16:07;;;;;;;14.32;1.70;;;7.00;79.30;;;;;;5023583;28;20092;-64
2021/01/22 14:18:33;;;;;;;11.45;2.00;;;7.00;80.00;;;;;;5026284;28;20500;-64
2021/01/22 14:20:59;;;;;;;11.85;1.38;;;6.90;80.30;;;;;;5026234;28;20045;-64
2021/01/22 14:23:25;;;;;;;9.43;1.75;;;6.90;79.80;;;;;;5019986;28;20764;-64
2021/01/22 14:25:52;;;;;;;21.60;2.22;;;6.90;80.60;;;;;;5022682;28;20049;-64
2021/01/22 14:28:18;;;;;;;17.08;3.00;;;6.90;80.40;;;;;;5020027;28;20494;-64
2021/01/22 14:30:44;;;;;;;17.17;2.53;;;6.90;80.50;;;;;;5020968;28;20059;-64
2021/01/22 14:33:09;;;;;;;17.33;2.30;;;6.90;80.50;;;;;;5022348;28;20112;-64
2021/01/22 14:35:35;;;;;;;14.90;2.50;;;6.90;80.70;;;;;;5016152;28;20064;-64
2021/01/22 14:38:01;;;;;;;11.30;1.67;;;6.80;80.80;;;;;;5030947;28;20483;-64
2021/01/22 14:40:27;;;;;;;12.05;2.10;;;6.80;80.20;;;;;;5024015;28;20517;-64
2021/01/22 14:42:52;;;;;;;13.57;2.97;;;6.80;81.20;;;;;;5027345;28;20045;-64
2021/01/22 14:45:18;;;;;;;9.13;1.90;;;6.70;80.80;;;;;;5026438;28;20476;-64
2021/01/22 14:47:44;;;;;;;13.30;1.80;;;6.70;80.30;;;;;;5027156;28;20042;-64
2021/01/22 14:50:10;;;;;;;14.50;1.60;;;6.60;81.10;;;;;;5027690;28;20038;-64
2021/01/22 14:52:36;;;;;;;12.68;2.45;;;6.60;81.10;;;;;;5019803;28;20172;-64
2021/01/22 14:55:05;;;;;;;13.77;1.85;;;6.60;81.40;;;;;;5021835;28;20531;-64
2021/01/22 14:57:30;;;;;;;13.13;2.78;;;6.60;81.80;;;;;;5030193;28;20052;-64
2021/01/22 14:59:57;;;;;;;12.77;2.00;;;6.60;82.10;;;;;;5026448;28;20042;-64
2021/01/22 15:02:23;;;;;;;14.25;1.45;;;6.50;81.90;;;;;;5028735;28;20049;-64
2021/01/22 15:04:48;;;;;;;12.90;1.90;;;6.50;82.20;;;;;;5029025;28;20044;-64
2021/01/22 15:07:14;;;;;;;10.75;2.10;;;6.50;81.90;;;;;;5030919;28;20041;-64
2021/01/22 15:09:40;;;;;;;20.25;2.25;;;6.50;82.10;;;;;;5025003;28;20045;-64
2021/01/22 15:12:07;;;;;;;13.20;1.83;;;6.50;82.40;;;;;;5027696;28;20041;-64
2021/01/22 15:14:33;;;;;;;11.27;2.13;;;6.50;82.50;;;;;;5026052;28;20482;-64
2021/01/22 15:16:59;;;;;;;11.23;2.00;;;6.50;82.10;;;;;;5027659;28;20037;-64
2021/01/22 15:19:25;;;;;;;14.02;1.45;;;6.40;82.20;;;;;;5030912;28;20041;-64
2021/01/22 15:21:54;;;;;;;11.70;1.38;;;6.40;82.50;;;;;;5019391;28;20034;-65
2021/01/22 15:24:20;;;;;;;16.90;1.48;;;6.40;82.30;;;;;;5022001;28;20033;-64
2021/01/22 15:26:47;;;;;;;10.50;1.70;;;6.30;82.50;;;;;;5019059;28;20541;-64
2021/01/22 15:29:15;;;;;;;11.68;1.83;;;6.30;82.80;;;;;;5020047;28;20037;-64
2021/01/22 15:31:45;;;;;;;15.30;1.70;;;6.20;83.10;;;;;;5020075;28;20068;-64
2021/01/22 15:34:11;;;;;;;11.13;1.90;;;6.20;83.30;;;;;;5023376;28;20391;-64
2021/01/22 15:36:38;;;;;;;16.65;1.75;;;6.10;83.40;;;;;;5022665;28;20450;-64
2021/01/22 15:39:04;;;;;;;16.85;1.70;;;6.10;83.50;;;;;;5020477;28;20037;-64
2021/01/22 15:41:30;;;;;;;18.50;2.05;;;6.00;83.70;;;;;;5020547;28;21957;-64
2021/01/22 15:43:56;;;;;;;12.38;1.48;;;5.90;83.80;;;;;;5019145;28;20041;-64